Latest Weather Observations for Cape Borda

IDS60801

Issued at 6:22 pm CDT Sunday 24 January 2021 (issued every 10 minutes, with the page automatically refreshed every 10 minutes)

About weather observations | Map of weather stations | Latest weather observations for SA | Other Formats
Station Details ID: 022823 Name: CAPE BORDA Lat: -35.75 Lon: 136.60 Height: 158.0 m
Data from the previous 72 hours. | See also: Recent months at Cape Borda
Date/Time
CDT
Temp
°C
App
Temp
°C
Dew
Point
°C
Rel
Hum
%
Delta-T
°C
Wind Press
QNH
hPa
Press
MSL
hPa
Rain since
9am
mm
Dir  Spd
km/h
Gust
km/h
Spd
kts
Gust
kts
24/06:00pm 35.8 31.3 7.0 17 16.1 SSW 20 28 11 15 1002.3 1001.8 0.0
24/05:30pm 36.4 32.6 7.4 17 16.4 SSW 17 24 9 13 1002.5 1002.0 0.0
24/05:00pm 35.5 30.6 6.7 17 16.0 S 22 32 12 17 1002.6 1002.1 0.0
24/04:30pm 34.7 30.4 5.2 16 16.0 S 17 26 9 14 1003.0 1002.5 0.0
24/04:00pm 32.4 28.3 8.6 23 13.4 SE 20 26 11 14 1003.1 1002.6 0.0
24/03:30pm 29.8 24.3 9.3 28 11.6 SSE 28 39 15 21 1003.3 1002.8 0.0
24/03:00pm 29.7 24.1 8.7 27 11.7 S 28 35 15 19 1003.7 1003.2 0.0
24/02:30pm 27.2 23.4 11.3 37 9.2 SSW 22 28 12 15 1004.3 1003.8 0.0
24/02:00pm 26.5 24.3 12.2 41 8.3 SW 15 20 8 11 1004.4 1003.9 0.0
24/01:30pm 26.0 24.0 12.8 44 7.7 SW 15 22 8 12 1004.6 1004.1 0.0
24/01:00pm 30.2 27.4 6.8 23 12.6 NNW 11 17 6 9 1005.0 1004.5 0.0
24/12:30pm 31.3 26.7 5.7 20 13.7 N 19 22 10 12 1005.4 1004.9 0.0
24/12:00pm 31.8 26.0 4.6 18 14.3 NNE 24 30 13 16 1005.0 1004.5 0.0
24/11:30am 31.8 25.9 3.8 17 14.6 NE 24 30 13 16 1004.9 1004.3 0.0
24/11:00am 31.9 26.0 3.8 17 14.6 NE 24 32 13 17 1004.7 1004.2 0.0
24/10:30am 31.3 25.8 5.7 20 13.7 NE 24 32 13 17 1005.1 1004.6 0.0
24/10:00am 30.8 25.9 5.3 20 13.5 NE 20 32 11 17 1005.3 1004.8 0.0
24/09:30am 30.5 25.5 6.4 22 13.0 NE 22 30 12 16 1005.4 1004.9 0.0
24/09:00am 30.2 25.1 6.1 22 12.9 NE 22 30 12 16 1005.5 1005.0 0.0
24/08:30am 28.4 24.0 7.6 27 11.3 NE 20 26 11 14 1005.6 1005.1 0.0
24/08:00am 28.4 23.9 7.1 26 11.5 ENE 20 28 11 15 1005.6 1005.1 0.0
24/07:30am 28.1 23.7 7.4 27 11.2 ENE 20 28 11 15 1005.5 1005.0 0.0
24/07:00am 28.4 23.2 7.1 26 11.5 ENE 24 35 13 19 1005.6 1005.1 0.0
24/06:30am 28.8 23.3 7.4 26 11.6 NE 26 33 14 18 1005.6 1005.1 0.0
24/06:00am 29.3 23.2 6.7 24 12.2 ENE 28 39 15 21 1005.3 1004.8 0.0
24/05:30am 29.2 22.9 7.2 25 11.9 ENE 30 43 16 23 1005.1 1004.6 0.0
24/05:00am 29.1 23.2 7.7 26 11.7 ENE 28 35 15 19 1005.2 1004.7 0.0
24/04:30am 28.6 22.5 8.3 28 11.2 ENE 30 39 16 21 1005.0 1004.5 0.0
24/04:00am 28.8 22.6 7.9 27 11.4 ENE 30 44 16 24 1005.0 1004.5 0.0
24/03:30am 28.7 22.9 7.9 27 11.4 ENE 28 41 15 22 1005.1 1004.6 0.0
24/03:00am 27.0 21.4 8.9 32 10.0 ENE 28 35 15 19 1005.1 1004.6 0.0
24/02:30am 26.4 21.2 10.1 36 9.2 ENE 28 37 15 20 1005.3 1004.8 0.0
24/02:00am 26.0 20.8 10.2 37 8.8 ENE 28 37 15 20 1005.6 1005.1 0.0
24/01:30am 27.3 21.9 9.6 33 9.9 ENE 28 37 15 20 1005.9 1005.4 0.0
24/01:00am 28.3 22.0 9.1 30 10.7 ENE 32 43 17 23 1005.9 1005.4 0.0
24/12:30am 28.7 22.6 8.4 28 11.2 ENE 30 39 16 21 1006.2 1005.7 0.0
24/12:00am 28.2 22.8 8.0 28 11.1 ENE 26 35 14 19 1006.3 1005.8 0.0
 
Date/Time
CDT
Temp
°C
App
Temp
°C
Dew
Point
°C
Rel
Hum
%
Delta-T
°C
Wind Press
QNH
hPa
Press
MSL
hPa
Rain since
9am
mm
Dir  Spd
km/h
Gust
km/h
Spd
kts
Gust
kts
23/11:30pm 28.9 23.1 6.3 24 12.1 ENE 26 35 14 19 1006.5 1006.0 0.0
23/11:00pm 29.6 23.7 5.6 22 12.7 ENE 26 33 14 18 1006.7 1006.2 0.0
23/10:30pm 29.8 23.9 5.8 22 12.8 ENE 26 33 14 18 1006.9 1006.4 0.0
23/10:00pm 30.0 24.4 5.3 21 13.0 ENE 24 30 13 16 1006.9 1006.4 0.0
23/09:30pm 29.4 24.1 6.7 24 12.2 ENE 24 32 13 17 1007.0 1006.5 0.0
23/09:00pm 29.3 23.6 4.7 21 12.8 ENE 24 33 13 18 1006.9 1006.4 0.0
23/08:30pm 29.2 22.2 1.7 17 13.6 ENE 28 35 15 19 1006.8 1006.3 0.0
23/08:00pm 28.9 22.3 2.2 18 13.2 ENE 26 33 14 18 1006.9 1006.4 0.0
23/07:30pm 30.4 24.8 0.9 15 14.5 ENE 20 26 11 14 1007.4 1006.9 0.0
23/07:00pm 31.3 26.1 2.5 16 14.6 NE 19 24 10 13 1007.5 1007.0 0.0
23/06:30pm 31.8 26.4 1.0 14 15.3 ENE 19 22 10 12 1007.5 1007.0 0.0
23/06:00pm 32.2 26.8 1.3 14 15.5 ENE 19 24 10 13 1007.7 1007.2 0.0
23/05:30pm 32.0 27.1 2.1 15 15.1 NE 17 22 9 12 1008.0 1007.5 0.0
23/05:00pm 31.7 28.4 4.5 18 14.3 NNE 11 15 6 8 1008.3 1007.8 0.0
23/04:30pm 32.8 29.0 3.7 16 15.2 NNE 13 19 7 10 1008.4 1007.9 0.0
23/04:00pm 31.3 27.4 3.4 17 14.3 N 13 17 7 9 1008.5 1008.0 0.0
23/03:30pm 32.0 27.3 3.1 16 14.9 NNE 17 20 9 11 1008.6 1008.1 0.0
23/03:00pm 32.2 27.3 4.1 17 14.7 NE 19 24 10 13 1009.0 1008.5 0.0
23/02:30pm 32.0 27.0 4.7 18 14.4 ENE 20 26 11 14 1009.0 1008.5 0.0
23/02:00pm 31.3 26.5 5.7 20 13.7 ENE 20 26 11 14 1009.4 1008.9 0.0
23/01:30pm 29.9 24.6 5.2 21 13.0 ENE 22 28 12 15 1009.6 1009.1 0.0
23/01:00pm 30.2 25.2 4.8 20 13.3 NE 20 30 11 16 1009.7 1009.2 0.0
23/12:30pm 29.3 22.5 -1.9 13 14.5 NE 24 32 13 17 1010.0 1009.5 0.0
23/12:00pm 28.6 22.0 -3.6 12 14.4 NE 22 32 12 17 1010.1 1009.6 0.0
23/11:30am 27.8 21.2 -0.3 16 13.2 ENE 24 30 13 16 1010.5 1010.1 0.0
23/11:00am 27.1 20.9 0.0 17 12.8 ENE 22 30 12 16 1010.6 1010.2 0.0
23/10:30am 25.7 19.2 2.4 22 11.4 ENE 26 32 14 17 1010.8 1010.4 0.0
23/10:00am 24.0 18.1 5.8 31 9.3 ENE 26 35 14 19 1010.8 1010.4 0.0
23/09:30am 24.0 18.7 6.7 33 9.0 ENE 24 32 13 17 1010.9 1010.5 0.0
23/09:00am 24.2 19.4 5.5 30 9.6 NE 20 28 11 15 1010.9 1010.5 -
23/08:30am 23.7 17.8 4.1 28 9.7 ENE 24 32 13 17 1010.5 1010.1 -
23/08:00am 22.0 17.1 6.7 37 7.9 ENE 22 32 12 17 1010.0 1009.5 -
23/07:30am 21.0 16.9 8.0 43 6.8 ENE 19 22 10 12 1009.9 1009.4 0.0
23/07:00am 19.2 15.4 9.1 52 5.3 ENE 19 22 10 12 1009.6 1009.1 0.0
23/06:30am 17.7 13.9 9.8 60 4.2 ENE 20 22 11 12 1009.3 1008.8 0.0
23/06:00am 17.5 14.8 11.8 69 3.1 ENE 17 19 9 10 1009.4 1008.9 0.0
23/05:30am 17.9 14.7 10.0 60 4.2 ENE 17 20 9 11 1009.4 1008.9 0.0
23/05:00am 17.3 14.1 11.1 67 3.4 ENE 19 20 10 11 1009.3 1008.8 0.0
23/04:30am 17.1 14.0 10.2 64 3.7 E 17 19 9 10 1009.2 1008.7 0.0
23/04:00am 17.7 15.0 9.1 57 4.5 NE 13 15 7 8 1009.6 1009.1 0.0
23/03:30am 18.0 13.9 7.7 51 5.3 ENE 19 20 10 11 1009.3 1008.8 0.0
23/03:00am 16.7 13.2 10.3 66 3.4 ENE 19 20 10 11 1009.4 1008.9 0.0
23/02:30am 16.1 12.6 10.8 71 2.8 E 20 22 11 12 1009.9 1009.4 0.0
23/02:00am 15.5 12.9 13.3 87 1.2 ESE 19 20 10 11 1010.5 1010.1 0.0
23/01:30am 15.8 13.3 13.5 86 1.3 ESE 19 22 10 12 1010.8 1010.4 0.0
23/01:00am 16.2 13.5 13.5 84 1.5 ESE 20 22 11 12 1011.3 1010.9 0.0
23/12:30am 16.2 13.6 12.0 76 2.3 ESE 17 19 9 10 1011.7 1011.2 0.0
23/12:00am 16.6 14.4 12.0 74 2.5 ESE 15 15 8 8 1011.7 1011.2 0.0
 
Date/Time
CDT
Temp
°C
App
Temp
°C
Dew
Point
°C
Rel
Hum
%
Delta-T
°C
Wind Press
QNH
hPa
Press
MSL
hPa
Rain since
9am
mm
Dir  Spd
km/h
Gust
km/h
Spd
kts
Gust
kts
22/11:30pm 16.7 15.0 12.5 76 2.3 ESE 13 15 7 8 1011.8 1011.3 0.0
22/11:00pm 17.3 15.5 12.2 72 2.8 SE 13 15 7 8 1012.0 1011.5 0.0
22/10:30pm 17.9 15.3 11.9 68 3.3 ESE 17 20 9 11 1012.1 1011.6 0.0
22/10:00pm 18.4 15.4 11.9 66 3.6 ESE 19 20 10 11 1012.1 1011.6 0.0
22/09:30pm 19.2 16.1 11.7 62 4.2 ESE 19 20 10 11 1012.1 1011.6 0.0
22/09:00pm 20.2 17.9 11.7 58 4.7 ESE 15 19 8 10 1012.2 1011.7 0.0
22/08:30pm 21.8 18.9 10.9 50 6.1 ESE 17 20 9 11 1011.9 1011.4 0.0
22/08:00pm 22.9 21.1 12.2 51 6.1 E 13 22 7 12 1011.7 1011.2 0.0
22/07:30pm 25.5 21.2 3.5 24 10.9 SE 15 19 8 10 1011.7 1011.2 0.0
22/07:00pm 26.8 22.8 6.8 28 10.6 SSE 17 24 9 13 1011.3 1010.9 0.0
22/06:30pm 26.9 23.7 6.9 28 10.6 SSW 13 22 7 12 1011.3 1010.9 0.0
22/06:00pm 24.6 23.7 13.8 51 6.4 N 11 15 6 8 1011.3 1010.9 0.0
22/05:30pm 27.8 23.5 5.4 24 11.7 SW 17 24 9 13 1011.2 1010.8 0.0
22/05:00pm 27.9 23.0 4.9 23 11.9 SW 20 28 11 15 1011.2 1010.8 0.0
22/04:30pm 29.3 24.9 7.2 25 12.0 SSW 20 28 11 15 1011.2 1010.8 0.0
22/04:00pm 27.3 21.5 4.4 23 11.7 SW 24 32 13 17 1011.8 1011.3 0.0
22/03:30pm 27.4 22.6 7.3 28 10.8 SW 22 30 12 16 1012.0 1011.5 0.0
22/03:00pm 27.8 22.8 6.6 26 11.3 SW 22 30 12 16 1012.1 1011.6 0.0
22/02:30pm 27.3 22.4 6.7 27 10.9 SW 22 26 12 14 1012.2 1011.7 0.0
22/02:00pm 27.9 22.7 3.6 21 12.3 SW 20 26 11 14 1012.5 1012.0 0.0
22/01:30pm 27.2 22.9 3.0 21 12.0 S 15 24 8 13 1012.6 1012.1 0.0
22/01:00pm 26.5 21.7 2.4 21 11.8 S 17 24 9 13 1012.8 1012.3 0.0
22/12:30pm 25.9 20.8 6.0 28 10.4 SW 22 28 12 15 1012.9 1012.4 0.0
22/12:00pm 24.3 18.4 1.9 23 10.7 SW 22 30 12 16 1013.0 1012.5 0.0
22/11:30am 25.4 21.8 8.4 34 9.2 SSW 17 20 9 11 1012.8 1012.3 0.0
22/11:00am 25.2 21.8 5.9 29 10.0 SSW 13 19 7 10 1012.8 1012.3 0.0
22/10:30am 24.9 21.8 7.1 32 9.4 SSE 13 19 7 10 1013.0 1012.5 0.0
22/10:00am 24.0 20.5 7.2 34 8.8 S 15 20 8 11 1013.1 1012.6 0.0
22/09:30am 23.3 19.9 5.7 32 9.0 S 13 19 7 10 1013.0 1012.5 0.0
22/09:00am 22.7 19.9 5.2 32 8.8 SW 9 11 5 6 1012.9 1012.4 0.0
22/08:30am 20.7 18.7 7.0 41 7.0 SSW 7 9 4 5 1012.7 1012.2 0.0
22/08:00am 19.5 19.0 9.4 52 5.4 W 2 7 1 4 1012.5 1012.0 0.0
22/07:30am 18.3 17.6 6.8 47 5.8 CALM 0 0 0 0 1012.3 1011.8 0.0
22/07:00am 16.7 15.3 8.7 59 4.1 NNW 6 7 3 4 1012.2 1011.7 0.0
22/06:30am 16.0 14.5 9.2 64 3.5 NNW 7 9 4 5 1011.8 1011.3 0.0
22/06:00am 16.2 14.5 9.8 66 3.4 N 9 11 5 6 1011.6 1011.1 0.0
22/05:30am 16.2 14.6 10.3 68 3.1 NNW 9 11 5 6 1011.1 1010.7 0.0
22/05:00am 16.3 15.2 10.6 69 3.1 NW 7 9 4 5 1011.2 1010.8 0.0
22/04:30am 16.5 14.2 10.4 67 3.3 NNW 13 15 7 8 1011.1 1010.7 0.0
22/04:00am 17.0 14.0 7.9 55 4.6 NNW 13 17 7 9 1011.2 1010.8 0.0
22/03:30am 17.5 13.6 7.3 51 5.2 N 17 20 9 11 1010.9 1010.5 0.0
22/03:00am 17.4 13.0 4.7 43 6.1 NE 17 19 9 10 1010.8 1010.4 0.0
22/02:30am 16.5 11.3 -0.2 32 7.2 E 17 19 9 10 1011.1 1010.7 0.0
22/02:00am 16.4 11.6 0.5 34 6.9 ESE 15 17 8 9 1011.2 1010.8 0.0
22/01:30am 17.1 11.6 0.7 33 7.2 ESE 19 20 10 11 1011.0 1010.6 0.0
22/01:00am 17.3 11.8 0.9 33 7.3 SE 19 22 10 12 1011.1 1010.7 0.0
22/12:30am 18.3 12.8 1.8 33 7.5 SE 20 26 11 14 1011.1 1010.7 0.0
22/12:00am 17.8 12.5 1.7 34 7.3 SE 19 22 10 12 1011.1 1010.7 0.0
 
Date/Time
CDT
Temp
°C
App
Temp
°C
Dew
Point
°C
Rel
Hum
%
Delta-T
°C
Wind Press
QNH
hPa
Press
MSL
hPa
Rain since
9am
mm
Dir  Spd
km/h
Gust
km/h
Spd
kts
Gust
kts
21/11:30pm 18.0 12.2 0.2 30 7.8 SE 20 22 11 12 1011.3 1010.9 0.0
21/11:00pm 18.6 12.9 0.7 30 8.0 SE 20 24 11 13 1011.7 1011.2 0.0
21/10:30pm 18.8 13.3 3.8 37 7.1 SE 22 24 12 13 1011.9 1011.4 0.0
21/10:00pm 19.2 14.0 3.4 35 7.5 SE 20 24 11 13 1011.8 1011.3 0.0
21/09:30pm 19.9 14.4 4.0 35 7.7 SE 22 28 12 15 1011.9 1011.4 0.0
21/09:00pm 21.0 15.5 4.1 33 8.2 SE 22 26 12 14 1011.7 1011.2 0.0
21/08:30pm 22.6 16.7 3.7 29 9.2 SSE 24 33 13 18 1011.7 1011.2 0.0
21/08:00pm 24.1 18.1 3.4 26 10.2 SSE 24 32 13 17 1011.7 1011.2 0.0
21/07:30pm 25.0 18.1 2.4 23 11.0 S 28 33 15 18 1011.7 1011.2 0.0
21/07:00pm 26.5 20.8 3.1 22 11.6 S 22 30 12 16 1011.6 1011.1 0.0
21/06:30pm 27.1 20.9 2.2 20 12.2 S 24 33 13 18 1011.5 1011.0 0.0

Other formats

Comma delimited format used in spreadsheet applications
http://www.bom.gov.au/fwo/IDS60801/IDS60801.95805.axf

JavaScript Object Notation format (JSON) in row-major order
http://www.bom.gov.au/fwo/IDS60801/IDS60801.95805.json

Data quality

Most of these data are generated automatically and are frequently updated. Quality checks on data are not normally performed. It is possible for incorrect values to appear. Refer to information at About Latest Weather Observations and please check the disclaimer before using these data.